sensor_id;sensor_type;location;lat;lon;timestamp;pressure;altitude;pressure_sealevel;temperature;humidity
60345;BME280;46188;52.324;8.032;2023-02-13T00:00:17;102662.00;;;7.03;100.00
60345;BME280;46188;52.324;8.032;2023-02-13T00:02:43;102664.31;;;7.12;100.00
60345;BME280;46188;52.324;8.032;2023-02-13T00:05:08;102668.81;;;7.14;100.00
60345;BME280;46188;52.324;8.032;2023-02-13T00:07:34;102662.56;;;7.12;100.00
60345;BME280;46188;52.324;8.032;2023-02-13T00:09:59;102659.66;;;7.08;100.00
60345;BME280;46188;52.324;8.032;2023-02-13T00:12:25;102661.13;;;7.02;100.00
60345;BME280;46188;52.324;8.032;2023-02-13T00:14:50;102664.38;;;6.98;100.00
60345;BME280;46188;52.324;8.032;2023-02-13T00:17:16;102661.56;;;6.95;100.00
60345;BME280;46188;52.324;8.032;2023-02-13T00:19:41;102656.13;;;6.92;100.00
60345;BME280;46188;52.324;8.032;2023-02-13T00:22:07;102658.09;;;6.96;100.00
60345;BME280;46188;52.324;8.032;2023-02-13T00:24:34;102657.59;;;7.02;100.00
60345;BME280;46188;52.324;8.032;2023-02-13T00:26:59;102661.75;;;6.98;100.00
60345;BME280;46188;52.324;8.032;2023-02-13T00:29:25;102658.00;;;6.95;100.00
60345;BME280;46188;52.324;8.032;2023-02-13T00:31:50;102655.19;;;6.92;100.00
60345;BME280;46188;52.324;8.032;2023-02-13T00:34:15;102657.66;;;6.89;100.00
60345;BME280;46188;52.324;8.032;2023-02-13T00:36:41;102652.66;;;6.93;100.00
60345;BME280;46188;52.324;8.032;2023-02-13T00:39:08;102652.66;;;6.93;100.00
60345;BME280;46188;52.324;8.032;2023-02-13T00:41:35;102654.59;;;6.96;100.00
60345;BME280;46188;52.324;8.032;2023-02-13T00:44:00;102649.25;;;6.94;100.00
60345;BME280;46188;52.324;8.032;2023-02-13T00:46:25;102657.66;;;6.89;100.00
60345;BME280;46188;52.324;8.032;2023-02-13T00:48:51;102648.78;;;6.87;100.00
60345;BME280;46188;52.324;8.032;2023-02-13T00:51:16;102651.25;;;6.83;100.00
60345;BME280;46188;52.324;8.032;2023-02-13T00:53:42;102657.47;;;6.86;100.00
60345;BME280;46188;52.324;8.032;2023-02-13T00:56:07;102645.06;;;6.83;100.00
60345;BME280;46188;52.324;8.032;2023-02-13T00:58:33;102646.00;;;6.83;100.00
60345;BME280;46188;52.324;8.032;2023-02-13T01:00:58;102644.47;;;6.87;100.00
60345;BME280;46188;52.324;8.032;2023-02-13T01:03:24;102646.25;;;6.88;100.00
60345;BME280;46188;52.324;8.032;2023-02-13T01:05:50;102644.66;;;6.90;100.00
60345;BME280;46188;52.324;8.032;2023-02-13T01:08:17;102647.09;;;6.87;100.00
60345;BME280;46188;52.324;8.032;2023-02-13T01:10:44;102644.47;;;6.87;100.00
60345;BME280;46188;52.324;8.032;2023-02-13T01:13:11;102653.22;;;6.88;100.00
60345;BME280;46188;52.324;8.032;2023-02-13T01:15:37;102649.69;;;6.87;100.00
60345;BME280;46188;52.324;8.032;2023-02-13T01:18:03;102642.53;;;6.84;100.00
60345;BME280;46188;52.324;8.032;2023-02-13T01:20:29;102648.63;;;6.83;100.00
60345;BME280;46188;52.324;8.032;2023-02-13T01:22:55;102644.78;;;6.78;100.00
60345;BME280;46188;52.324;8.032;2023-02-13T01:25:22;102647.50;;;6.80;100.00
60345;BME280;46188;52.324;8.032;2023-02-13T01:27:47;102637.09;;;6.81;100.00
60345;BME280;46188;52.324;8.032;2023-02-13T01:30:14;102640.75;;;6.83;100.00
60345;BME280;46188;52.324;8.032;2023-02-13T01:32:41;102639.81;;;6.83;100.00
60345;BME280;46188;52.324;8.032;2023-02-13T01:35:07;102638.03;;;6.82;100.00
60345;BME280;46188;52.324;8.032;2023-02-13T01:37:33;102632.94;;;6.85;100.00
60345;BME280;46188;52.324;8.032;2023-02-13T01:39:58;102633.13;;;6.88;100.00
60345;BME280;46188;52.324;8.032;2023-02-13T01:42:26;102627.91;;;6.88;100.00
60345;BME280;46188;52.324;8.032;2023-02-13T01:44:56;102629.72;;;6.89;100.00
60345;BME280;46188;52.324;8.032;2023-02-13T01:47:44;102625.91;;;6.84;100.00
60345;BME280;46188;52.324;8.032;2023-02-13T01:52:38;102621.94;;;6.91;100.00
60345;BME280;46188;52.324;8.032;2023-02-13T01:55:06;102615.81;;;6.90;100.00
60345;BME280;46188;52.324;8.032;2023-02-13T01:57:31;102617.41;;;6.88;100.00
60345;BME280;46188;52.324;8.032;2023-02-13T02:00:05;102617.41;;;6.88;100.00
60345;BME280;46188;52.324;8.032;2023-02-13T02:02:34;102620.97;;;6.89;100.00
60345;BME280;46188;52.324;8.032;2023-02-13T02:05:02;102610.47;;;6.89;100.00
60345;BME280;46188;52.324;8.032;2023-02-13T02:07:29;102619.13;;;6.88;100.00
60345;BME280;46188;52.324;8.032;2023-02-13T02:09:59;102621.84;;;6.89;100.00
60345;BME280;46188;52.324;8.032;2023-02-13T02:15:07;102619.50;;;6.94;100.00
60345;BME280;46188;52.324;8.032;2023-02-13T02:17:33;102627.66;;;6.98;100.00
60345;BME280;46188;52.324;8.032;2023-02-13T02:37:38;102609.44;;;6.87;100.00
60345;BME280;46188;52.324;8.032;2023-02-13T02:45:53;102600.22;;;6.78;100.00
60345;BME280;46188;52.324;8.032;2023-02-13T02:51:20;102597.16;;;6.86;100.00
60345;BME280;46188;52.324;8.032;2023-02-13T02:54:14;102594.66;;;6.87;100.00
60345;BME280;46188;52.324;8.032;2023-02-13T02:57:03;102590.94;;;6.83;100.00
60345;BME280;46188;52.324;8.032;2023-02-13T02:59:31;102595.25;;;6.83;100.00
60345;BME280;46188;52.324;8.032;2023-02-13T03:02:16;102590.75;;;6.80;100.00
60345;BME280;46188;52.324;8.032;2023-02-13T03:05:01;102586.66;;;6.71;100.00
60345;BME280;46188;52.324;8.032;2023-02-13T03:07:46;102580.50;;;6.70;100.00
60345;BME280;46188;52.324;8.032;2023-02-13T03:10:32;102587.19;;;6.80;100.00
60345;BME280;46188;52.324;8.032;2023-02-13T03:13:33;102579.91;;;6.89;100.00
60345;BME280;46188;52.324;8.032;2023-02-13T03:16:00;102576.81;;;6.96;100.00
60345;BME280;46188;52.324;8.032;2023-02-13T03:18:49;102577.28;;;6.89;100.00
60345;BME280;46188;52.324;8.032;2023-02-13T03:21:55;102581.44;;;6.86;100.00
60345;BME280;46188;52.324;8.032;2023-02-13T03:41:04;102586.41;;;6.81;100.00
60345;BME280;46188;52.324;8.032;2023-02-13T03:46:17;102586.56;;;6.69;100.00
60345;BME280;46188;52.324;8.032;2023-02-13T03:48:44;102589.09;;;6.68;100.00
60345;BME280;46188;52.324;8.032;2023-02-13T03:53:58;102590.09;;;6.70;100.00
60345;BME280;46188;52.324;8.032;2023-02-13T03:56:25;102589.47;;;6.74;100.00
60345;BME280;46188;52.324;8.032;2023-02-13T03:59:18;102588.28;;;6.69;100.00
60345;BME280;46188;52.324;8.032;2023-02-13T04:02:10;102589.47;;;6.74;100.00
60345;BME280;46188;52.324;8.032;2023-02-13T04:07:17;102593.28;;;6.79;100.00
60345;BME280;46188;52.324;8.032;2023-02-13T04:10:00;102594.88;;;6.77;100.00
60345;BME280;46188;52.324;8.032;2023-02-13T04:15:31;102586.47;;;6.68;100.00
60345;BME280;46188;52.324;8.032;2023-02-13T04:18:19;102589.19;;;6.69;100.00
60345;BME280;46188;52.324;8.032;2023-02-13T04:20:47;102577.81;;;6.69;100.00
60345;BME280;46188;52.324;8.032;2023-02-13T04:23:12;102574.25;;;6.68;100.00
60345;BME280;46188;52.324;8.032;2023-02-13T04:25:40;102581.50;;;6.72;100.00
60345;BME280;46188;52.324;8.032;2023-02-13T04:28:08;102591.34;;;6.76;100.00
60345;BME280;46188;52.324;8.032;2023-02-13T04:30:33;102580.78;;;6.75;100.00
60345;BME280;46188;52.324;8.032;2023-02-13T04:32:59;102584.22;;;6.74;100.00
60345;BME280;46188;52.324;8.032;2023-02-13T04:35:24;102584.31;;;6.75;100.00
60345;BME280;46188;52.324;8.032;2023-02-13T04:37:50;102588.75;;;6.76;100.00
60345;BME280;46188;52.324;8.032;2023-02-13T04:40:16;102591.34;;;6.76;100.00
60345;BME280;46188;52.324;8.032;2023-02-13T04:42:41;102592.91;;;6.73;100.00
60345;BME280;46188;52.324;8.032;2023-02-13T04:45:07;102588.44;;;6.72;100.00
60345;BME280;46188;52.324;8.032;2023-02-13T04:47:33;102591.91;;;6.71;100.00
60345;BME280;46188;52.324;8.032;2023-02-13T04:49:58;102591.81;;;6.69;100.00
60345;BME280;46188;52.324;8.032;2023-02-13T04:52:23;102589.28;;;6.71;100.00
60345;BME280;46188;52.324;8.032;2023-02-13T04:54:49;102586.84;;;6.74;100.00
60345;BME280;46188;52.324;8.032;2023-02-13T04:57:14;102585.84;;;6.72;100.00
60345;BME280;46188;52.324;8.032;2023-02-13T04:59:40;102586.66;;;6.71;100.00
60345;BME280;46188;52.324;8.032;2023-02-13T05:02:05;102584.94;;;6.71;100.00
60345;BME280;46188;52.324;8.032;2023-02-13T05:04:31;102589.88;;;6.67;100.00
60345;BME280;46188;52.324;8.032;2023-02-13T05:06:56;102585.69;;;6.69;100.00
60345;BME280;46188;52.324;8.032;2023-02-13T05:09:22;102580.59;;;6.72;100.00
60345;BME280;46188;52.324;8.032;2023-02-13T05:11:50;102575.09;;;6.67;100.00
60345;BME280;46188;52.324;8.032;2023-02-13T05:14:16;102582.03;;;6.67;100.00
60345;BME280;46188;52.324;8.032;2023-02-13T05:16:41;102584.84;;;6.70;100.00
60345;BME280;46188;52.324;8.032;2023-02-13T05:19:07;102579.59;;;6.70;100.00
60345;BME280;46188;52.324;8.032;2023-02-13T05:21:32;102588.28;;;6.69;100.00
60345;BME280;46188;52.324;8.032;2023-02-13T05:24:16;102590.97;;;6.70;100.00
60345;BME280;46188;52.324;8.032;2023-02-13T05:26:41;102585.84;;;6.72;100.00
60345;BME280;46188;52.324;8.032;2023-02-13T05:29:08;102589.88;;;6.67;100.00
60345;BME280;46188;52.324;8.032;2023-02-13T05:31:47;102586.97;;;6.62;100.00
60345;BME280;46188;52.324;8.032;2023-02-13T05:34:13;102589.00;;;6.66;100.00
60345;BME280;46188;52.324;8.032;2023-02-13T05:36:41;102585.38;;;6.64;100.00
60345;BME280;46188;52.324;8.032;2023-02-13T05:39:07;102587.91;;;6.62;100.00
60345;BME280;46188;52.324;8.032;2023-02-13T05:41:32;102591.63;;;6.66;100.00
60345;BME280;46188;52.324;8.032;2023-02-13T05:43:58;102599.28;;;6.63;100.00
60345;BME280;46188;52.324;8.032;2023-02-13T05:46:23;102594.78;;;6.60;100.00
60345;BME280;46188;52.324;8.032;2023-02-13T05:48:50;102595.88;;;6.64;100.00
60345;BME280;46188;52.324;8.032;2023-02-13T05:51:18;102596.66;;;6.63;100.00
60345;BME280;46188;52.324;8.032;2023-02-13T05:53:43;102600.81;;;6.59;100.00
60345;BME280;46188;52.324;8.032;2023-02-13T05:56:09;102598.19;;;6.59;100.00
60345;BME280;46188;52.324;8.032;2023-02-13T05:58:35;102606.16;;;6.61;100.00
60345;BME280;46188;52.324;8.032;2023-02-13T06:01:01;102606.84;;;6.58;100.00
60345;BME280;46188;52.324;8.032;2023-02-13T06:03:27;102611.75;;;6.52;100.00
60345;BME280;46188;52.324;8.032;2023-02-13T06:05:54;102607.50;;;6.54;100.00
60345;BME280;46188;52.324;8.032;2023-02-13T06:08:20;102610.13;;;6.54;100.00
60345;BME280;46188;52.324;8.032;2023-02-13T06:10:46;102614.72;;;6.58;100.00
60345;BME280;46188;52.324;8.032;2023-02-13T06:13:11;102616.53;;;6.59;100.00
60345;BME280;46188;52.324;8.032;2023-02-13T06:15:38;102610.41;;;6.59;100.00
60345;BME280;46188;52.324;8.032;2023-02-13T06:18:03;102615.00;;;6.63;100.00
60345;BME280;46188;52.324;8.032;2023-02-13T06:20:29;102617.13;;;6.69;100.00
60345;BME280;46188;52.324;8.032;2023-02-13T06:22:54;102616.66;;;6.61;100.00
60345;BME280;46188;52.324;8.032;2023-02-13T06:25:20;102608.88;;;6.62;100.00
60345;BME280;46188;52.324;8.032;2023-02-13T06:27:45;102612.28;;;6.61;100.00
60345;BME280;46188;52.324;8.032;2023-02-13T06:30:12;102612.75;;;6.54;100.00
60345;BME280;46188;52.324;8.032;2023-02-13T06:32:38;102608.28;;;6.53;100.00
60345;BME280;46188;52.324;8.032;2023-02-13T06:35:04;102612.94;;;6.57;100.00
60345;BME280;46188;52.324;8.032;2023-02-13T06:37:29;102607.78;;;6.59;100.00
60345;BME280;46188;52.324;8.032;2023-02-13T06:39:55;102612.44;;;6.50;100.00
60345;BME280;46188;52.324;8.032;2023-02-13T06:42:20;102617.78;;;6.51;100.00
60345;BME280;46188;52.324;8.032;2023-02-13T06:44:46;102610.72;;;6.50;100.00
60345;BME280;46188;52.324;8.032;2023-02-13T06:47:12;102613.53;;;6.53;100.00
60345;BME280;46188;52.324;8.032;2023-02-13T06:49:37;102619.16;;;6.59;100.00
60345;BME280;46188;52.324;8.032;2023-02-13T06:52:03;102613.47;;;6.67;100.00
60345;BME280;46188;52.324;8.032;2023-02-13T06:54:28;102618.13;;;6.71;100.00
60345;BME280;46188;52.324;8.032;2023-02-13T06:56:53;102620.72;;;6.71;100.00
60345;BME280;46188;52.324;8.032;2023-02-13T06:59:19;102619.81;;;6.70;100.00
60345;BME280;46188;52.324;8.032;2023-02-13T07:01:44;102625.06;;;6.70;100.00
60345;BME280;46188;52.324;8.032;2023-02-13T07:04:10;102629.31;;;6.68;100.00
60345;BME280;46188;52.324;8.032;2023-02-13T07:06:35;102634.34;;;6.65;100.00
60345;BME280;46188;52.324;8.032;2023-02-13T07:09:02;102636.28;;;6.68;100.00
60345;BME280;46188;52.324;8.032;2023-02-13T07:11:27;102636.16;;;6.66;100.00
60345;BME280;46188;52.324;8.032;2023-02-13T07:13:53;102634.34;;;6.65;100.00
60345;BME280;46188;52.324;8.032;2023-02-13T07:16:18;102641.94;;;6.60;100.00
60345;BME280;46188;52.324;8.032;2023-02-13T07:18:44;102641.13;;;6.61;100.00
60345;BME280;46188;52.324;8.032;2023-02-13T07:21:09;102641.94;;;6.60;100.00
60345;BME280;46188;52.324;8.032;2023-02-13T07:23:34;102647.34;;;6.63;100.00
60345;BME280;46188;52.324;8.032;2023-02-13T07:26:00;102644.03;;;6.66;100.00
60345;BME280;46188;52.324;8.032;2023-02-13T07:28:27;102650.28;;;6.68;100.00
60345;BME280;46188;52.324;8.032;2023-02-13T07:30:53;102644.31;;;6.71;100.00
60345;BME280;46188;52.324;8.032;2023-02-13T07:33:19;102646.31;;;6.75;100.00
60345;BME280;46188;52.324;8.032;2023-02-13T07:35:51;102640.47;;;6.79;100.00
60345;BME280;46188;52.324;8.032;2023-02-13T07:38:17;102647.69;;;6.83;100.00
60345;BME280;46188;52.324;8.032;2023-02-13T07:40:43;102649.41;;;6.82;100.00
60345;BME280;46188;52.324;8.032;2023-02-13T07:43:09;102646.97;;;6.86;100.00
60345;BME280;46188;52.324;8.032;2023-02-13T07:45:34;102654.13;;;6.88;100.00
60345;BME280;46188;52.324;8.032;2023-02-13T07:48:00;102654.31;;;6.91;100.00
60345;BME280;46188;52.324;8.032;2023-02-13T07:50:26;102660.44;;;6.92;100.00
60345;BME280;46188;52.324;8.032;2023-02-13T07:52:56;102652.13;;;6.84;100.00
60345;BME280;46188;52.324;8.032;2023-02-13T07:55:24;102650.78;;;6.91;100.00
60345;BME280;46188;52.324;8.032;2023-02-13T07:57:50;102654.31;;;6.91;100.00
60345;BME280;46188;52.324;8.032;2023-02-13T08:00:17;102651.06;;;6.95;100.00
60345;BME280;46188;52.324;8.032;2023-02-13T08:02:43;102652.97;;;6.98;100.00
60345;BME280;46188;52.324;8.032;2023-02-13T08:05:08;102652.16;;;6.99;100.00
60345;BME280;46188;52.324;8.032;2023-02-13T08:07:34;102652.66;;;6.93;100.00
60345;BME280;46188;52.324;8.032;2023-02-13T08:10:00;102645.28;;;7.01;100.00
60345;BME280;46188;52.324;8.032;2023-02-13T08:12:44;102646.56;;;7.08;100.00
60345;BME280;46188;52.324;8.032;2023-02-13T08:15:11;102647.81;;;7.14;100.00
60345;BME280;46188;52.324;8.032;2023-02-13T08:17:37;102643.84;;;7.21;100.00
60345;BME280;46188;52.324;8.032;2023-02-13T08:20:03;102652.28;;;7.15;100.00
60345;BME280;46188;52.324;8.032;2023-02-13T08:22:29;102650.25;;;7.11;100.00
60345;BME280;46188;52.324;8.032;2023-02-13T08:24:54;102654.81;;;7.14;100.00
60345;BME280;46188;52.324;8.032;2023-02-13T08:27:19;102644.78;;;7.22;100.00
60345;BME280;46188;52.324;8.032;2023-02-13T08:29:48;102649.38;;;7.26;100.00
60345;BME280;46188;52.324;8.032;2023-02-13T08:32:14;102650.91;;;7.22;100.00
60345;BME280;46188;52.324;8.032;2023-02-13T08:34:39;102654.34;;;7.21;100.00
60345;BME280;46188;52.324;8.032;2023-02-13T08:37:04;102651.09;;;7.10;100.00
60345;BME280;46188;52.324;8.032;2023-02-13T08:39:30;102655.34;;;7.23;100.00
60345;BME280;46188;52.324;8.032;2023-02-13T08:41:55;102651.63;;;7.34;100.00
60345;BME280;46188;52.324;8.032;2023-02-13T08:44:21;102658.16;;;7.41;100.00
60345;BME280;46188;52.324;8.032;2023-02-13T08:46:46;102656.00;;;7.49;100.00
60345;BME280;46188;52.324;8.032;2023-02-13T08:49:11;102656.25;;;7.53;100.00
60345;BME280;46188;52.324;8.032;2023-02-13T08:51:37;102654.53;;;7.54;100.00
60345;BME280;46188;52.324;8.032;2023-02-13T08:54:02;102651.09;;;7.55;100.00
60345;BME280;46188;52.324;8.032;2023-02-13T08:56:28;102656.16;;;7.52;100.00
60345;BME280;46188;52.324;8.032;2023-02-13T08:58:53;102653.47;;;7.50;100.00
60345;BME280;46188;52.324;8.032;2023-02-13T09:01:19;102653.63;;;7.53;100.00
60345;BME280;46188;52.324;8.032;2023-02-13T09:03:44;102652.00;;;7.55;100.00
60345;BME280;46188;52.324;8.032;2023-02-13T09:06:10;102658.50;;;7.62;100.00
60345;BME280;46188;52.324;8.032;2023-02-13T09:08:35;102658.78;;;7.67;100.00
60345;BME280;46188;52.324;8.032;2023-02-13T09:11:02;102660.03;;;7.73;100.00
60345;BME280;46188;52.324;8.032;2023-02-13T09:13:30;102665.47;;;7.76;100.00
60345;BME280;46188;52.324;8.032;2023-02-13T09:16:00;102662.50;;;7.70;100.00
60345;BME280;46188;52.324;8.032;2023-02-13T09:18:27;102665.38;;;7.75;100.00
60345;BME280;46188;52.324;8.032;2023-02-13T09:21:00;102651.88;;;7.84;100.00
60345;BME280;46188;52.324;8.032;2023-02-13T09:23:26;102653.22;;;7.92;100.00
60345;BME280;46188;52.324;8.032;2023-02-13T09:25:54;102653.09;;;8.05;100.00
60345;BME280;46188;52.324;8.032;2023-02-13T09:28:22;102660.84;;;8.19;100.00
60345;BME280;46188;52.324;8.032;2023-02-13T09:30:47;102665.56;;;8.24;100.00
60345;BME280;46188;52.324;8.032;2023-02-13T09:33:13;102665.19;;;8.18;100.00
60345;BME280;46188;52.324;8.032;2023-02-13T09:35:38;102654.25;;;8.10;100.00
60345;BME280;46188;52.324;8.032;2023-02-13T09:38:06;102663.38;;;8.17;100.00
60345;BME280;46188;52.324;8.032;2023-02-13T09:40:38;102658.59;;;8.10;100.00
60345;BME280;46188;52.324;8.032;2023-02-13T09:43:57;102662.47;;;8.17;100.00
60345;BME280;46188;52.324;8.032;2023-02-13T09:46:00;102654.03;;;8.22;100.00
60345;BME280;46188;52.324;8.032;2023-02-13T09:48:35;102656.75;;;8.24;100.00
60345;BME280;46188;52.324;8.032;2023-02-13T09:51:03;102654.78;;;8.20;100.00
60345;BME280;46188;52.324;8.032;2023-02-13T09:53:29;102658.75;;;8.28;100.00
60345;BME280;46188;52.324;8.032;2023-02-13T09:56:14;102662.69;;;8.36;100.00
60345;BME280;46188;52.324;8.032;2023-02-13T10:01:20;102662.94;;;8.41;100.00
60345;BME280;46188;52.324;8.032;2023-02-13T10:04:02;102659.81;;;8.31;100.00
60345;BME280;46188;52.324;8.032;2023-02-13T10:06:38;102666.97;;;8.34;100.00
60345;BME280;46188;52.324;8.032;2023-02-13T10:15:17;102669.59;;;8.34;100.00
60345;BME280;46188;52.324;8.032;2023-02-13T10:17:47;102666.88;;;8.32;100.00
60345;BME280;46188;52.324;8.032;2023-02-13T10:20:28;102678.38;;;8.35;100.00
60345;BME280;46188;52.324;8.032;2023-02-13T10:26:05;102675.72;;;8.49;100.00
60345;BME280;46188;52.324;8.032;2023-02-13T10:28:37;102674.06;;;8.52;100.00
60345;BME280;46188;52.324;8.032;2023-02-13T10:31:13;102678.75;;;8.57;100.00
60345;BME280;46188;52.324;8.032;2023-02-13T10:36:17;102673.91;;;8.48;100.00
60345;BME280;46188;52.324;8.032;2023-02-13T10:39:30;102670.94;;;8.59;100.00
60345;BME280;46188;52.324;8.032;2023-02-13T10:42:04;102669.91;;;8.72;100.00
60345;BME280;46188;52.324;8.032;2023-02-13T10:52:24;102661.75;;;8.83;100.00
60345;BME280;46188;52.324;8.032;2023-02-13T10:55:17;102652.72;;;8.62;100.00
60345;BME280;46188;52.324;8.032;2023-02-13T11:03:01;102655.50;;;8.81;100.00
60345;BME280;46188;52.324;8.032;2023-02-13T11:05:34;102654.38;;;8.93;100.00
60345;BME280;46188;52.324;8.032;2023-02-13T11:08:01;102650.84;;;8.92;100.00
60345;BME280;46188;52.324;8.032;2023-02-13T11:10:27;102650.16;;;8.96;100.00
60345;BME280;46188;52.324;8.032;2023-02-13T11:12:52;102645.47;;;9.07;100.00
60345;BME280;46188;52.324;8.032;2023-02-13T11:15:30;102660.59;;;9.11;100.00
60345;BME280;46188;52.324;8.032;2023-02-13T11:17:59;102648.91;;;9.06;100.00
60345;BME280;46188;52.324;8.032;2023-02-13T11:20:34;102652.38;;;9.05;100.00
60345;BME280;46188;52.324;8.032;2023-02-13T11:26:14;102647.06;;;9.21;100.00
60345;BME280;46188;52.324;8.032;2023-02-13T11:28:55;102644.00;;;9.12;100.00
60345;BME280;46188;52.324;8.032;2023-02-13T11:31:29;102643.31;;;9.16;100.00
60345;BME280;46188;52.324;8.032;2023-02-13T11:33:56;102627.50;;;9.16;100.00
60345;BME280;46188;52.324;8.032;2023-02-13T11:36:29;102633.84;;;9.20;100.00
60345;BME280;46188;52.324;8.032;2023-02-13T11:39:05;102627.97;;;9.42;100.00
60345;BME280;46188;52.324;8.032;2023-02-13T11:41:38;102630.06;;;9.49;100.00
60345;BME280;46188;52.324;8.032;2023-02-13T11:44:21;102629.84;;;9.63;100.00
60345;BME280;46188;52.324;8.032;2023-02-13T11:46:51;102625.75;;;9.51;100.00
60345;BME280;46188;52.324;8.032;2023-02-13T11:49:31;102623.53;;;9.59;100.00
60345;BME280;46188;52.324;8.032;2023-02-13T11:52:06;102613.38;;;9.49;100.00
60345;BME280;46188;52.324;8.032;2023-02-13T11:54:44;102618.00;;;9.36;100.00
60345;BME280;46188;52.324;8.032;2023-02-13T11:57:20;102617.72;;;9.48;100.00
60345;BME280;46188;52.324;8.032;2023-02-13T11:59:48;102609.81;;;9.48;100.00
60345;BME280;46188;52.324;8.032;2023-02-13T12:02:27;102607.50;;;9.54;100.00
60345;BME280;46188;52.324;8.032;2023-02-13T12:05:14;102601.03;;;9.48;100.00
60345;BME280;46188;52.324;8.032;2023-02-13T12:07:41;102601.47;;;9.57;100.00
60345;BME280;46188;52.324;8.032;2023-02-13T12:10:23;102594.88;;;9.65;100.00
60345;BME280;46188;52.324;8.032;2023-02-13T12:15:32;102602.88;;;10.04;100.00
60345;BME280;46188;52.324;8.032;2023-02-13T12:27:11;102591.84;;;11.53;100.00
60345;BME280;46188;52.324;8.032;2023-02-13T12:29:54;102586.94;;;10.99;100.00
60345;BME280;46188;52.324;8.032;2023-02-13T12:35:31;102588.94;;;12.84;93.38
60345;BME280;46188;52.324;8.032;2023-02-13T12:43:45;102566.06;;;12.84;86.45
60345;BME280;46188;52.324;8.032;2023-02-13T12:46:35;102563.94;;;13.00;83.56
60345;BME280;46188;52.324;8.032;2023-02-13T13:16:19;102535.72;;;12.74;85.47
60345;BME280;46188;52.324;8.032;2023-02-13T13:26:42;102524.97;;;11.76;90.94
60345;BME280;46188;52.324;8.032;2023-02-13T13:29:14;102528.53;;;11.77;91.30
60345;BME280;46188;52.324;8.032;2023-02-13T13:31:49;102525.69;;;12.17;88.85
60345;BME280;46188;52.324;8.032;2023-02-13T13:34:20;102519.91;;;12.28;88.10
60345;BME280;46188;52.324;8.032;2023-02-13T13:36:52;102519.72;;;11.99;88.21
60345;BME280;46188;52.324;8.032;2023-02-13T13:49:55;102512.78;;;12.75;82.61
60345;BME280;46188;52.324;8.032;2023-02-13T13:52:23;102513.09;;;12.59;83.03
60345;BME280;46188;52.324;8.032;2023-02-13T13:54:49;102507.53;;;12.27;83.96
60345;BME280;46188;52.324;8.032;2023-02-13T13:57:21;102506.25;;;11.93;85.65
60345;BME280;46188;52.324;8.032;2023-02-13T14:07:34;102494.03;;;12.19;85.71
60345;BME280;46188;52.324;8.032;2023-02-13T14:10:00;102492.03;;;12.37;84.23
60345;BME280;46188;52.324;8.032;2023-02-13T14:14:58;102490.88;;;12.05;85.21
60345;BME280;46188;52.324;8.032;2023-02-13T14:25:38;102487.88;;;11.51;88.91
60345;BME280;46188;52.324;8.032;2023-02-13T14:28:04;102483.88;;;11.60;88.16
60345;BME280;46188;52.324;8.032;2023-02-13T14:30:35;102489.38;;;11.44;89.44
60345;BME280;46188;52.324;8.032;2023-02-13T14:33:05;102486.69;;;11.42;89.67
60345;BME280;46188;52.324;8.032;2023-02-13T14:35:34;102485.63;;;11.16;89.01
60345;BME280;46188;52.324;8.032;2023-02-13T14:38:05;102480.88;;;11.07;91.54
60345;BME280;46188;52.324;8.032;2023-02-13T14:40:51;102479.44;;;11.16;91.41
60345;BME280;46188;52.324;8.032;2023-02-13T14:43:46;102478.72;;;11.20;91.56
60345;BME280;46188;52.324;8.032;2023-02-13T14:46:19;102480.00;;;11.08;92.01
60345;BME280;46188;52.324;8.032;2023-02-13T14:48:52;102476.94;;;11.19;91.62
60345;BME280;46188;52.324;8.032;2023-02-13T14:51:33;102479.25;;;11.11;91.96
60345;BME280;46188;52.324;8.032;2023-02-13T14:54:08;102475.78;;;11.12;92.45
60345;BME280;46188;52.324;8.032;2023-02-13T14:56:40;102480.13;;;10.89;92.48
60345;BME280;46188;52.324;8.032;2023-02-13T14:59:13;102473.47;;;10.78;93.41
60345;BME280;46188;52.324;8.032;2023-02-13T15:01:58;102473.22;;;10.93;93.38
60345;BME280;46188;52.324;8.032;2023-02-13T15:04:33;102476.63;;;10.90;93.77
60345;BME280;46188;52.324;8.032;2023-02-13T15:07:01;102474.84;;;10.89;94.06
60345;BME280;46188;52.324;8.032;2023-02-13T15:09:35;102477.78;;;10.76;95.07
60345;BME280;46188;52.324;8.032;2023-02-13T15:12:03;102481.22;;;10.53;95.65
60345;BME280;46188;52.324;8.032;2023-02-13T15:14:31;102475.88;;;10.52;95.84
60345;BME280;46188;52.324;8.032;2023-02-13T15:17:02;102467.97;;;10.52;96.30
60345;BME280;46188;52.324;8.032;2023-02-13T15:19:31;102474.19;;;10.52;97.01
60345;BME280;46188;52.324;8.032;2023-02-13T15:22:01;102469.00;;;10.56;96.71
60345;BME280;46188;52.324;8.032;2023-02-13T15:24:36;102461.03;;;10.54;97.29
60345;BME280;46188;52.324;8.032;2023-02-13T15:27:05;102463.41;;;10.48;97.04
60345;BME280;46188;52.324;8.032;2023-02-13T15:29:31;102461.09;;;10.34;98.62
60345;BME280;46188;52.324;8.032;2023-02-13T15:31:57;102457.72;;;10.19;99.98
60345;BME280;46188;52.324;8.032;2023-02-13T15:34:30;102460.63;;;10.06;100.00
60345;BME280;46188;52.324;8.032;2023-02-13T15:36:58;102459.00;;;9.88;100.00
60345;BME280;46188;52.324;8.032;2023-02-13T15:39:26;102464.63;;;9.78;100.00
60345;BME280;46188;52.324;8.032;2023-02-13T15:41:58;102457.72;;;9.60;100.00
60345;BME280;46188;52.324;8.032;2023-02-13T15:44:27;102461.41;;;9.46;100.00
60345;BME280;46188;52.324;8.032;2023-02-13T15:46:56;102456.53;;;9.36;100.00
60345;BME280;46188;52.324;8.032;2023-02-13T15:49:25;102459.50;;;9.24;100.00
60345;BME280;46188;52.324;8.032;2023-02-13T15:52:04;102454.53;;;9.12;100.00
60345;BME280;46188;52.324;8.032;2023-02-13T15:54:31;102455.91;;;9.04;100.00
60345;BME280;46188;52.324;8.032;2023-02-13T15:57:05;102456.13;;;8.91;100.00